Time,TemperatureF,DewpointF,PressureIn,WindDirection,WindDirectionDegrees,WindSpeedMPH,WindSpeedGustMPH,Humidity,HourlyPrecipIn,Conditions,Clouds,dailyrainin,SolarRadiationWatts/m^2,SoftwareType,DateUTC
2013-02-09 00:14:00,33.0,24.0,30.38,NNE,29,14.0,17.0,70,0.00,,,0.00,0,weatherlink.com 1.10,2013-02-09 07:14:00,
2013-02-09 00:29:00,32.9,24.0,30.38,NE,42,15.0,18.0,69,0.00,,,0.00,0,weatherlink.com 1.10,2013-02-09 07:29:00,
2013-02-09 00:44:00,32.8,23.0,30.38,NE,34,16.0,18.0,67,0.00,,,0.00,0,weatherlink.com 1.10,2013-02-09 07:44:00,
2013-02-09 00:59:00,32.6,23.0,30.38,NE,37,16.0,19.0,67,0.00,,,0.00,0,weatherlink.com 1.10,2013-02-09 07:59:00,
2013-02-09 01:15:00,32.5,23.0,30.38,NE,34,13.0,18.0,67,0.00,,,0.00,0,weatherlink.com 1.10,2013-02-09 08:15:00,
2013-02-09 01:29:00,32.3,22.0,30.38,NNE,24,15.0,20.0,66,0.00,,,0.00,0,weatherlink.com 1.10,2013-02-09 08:29:00,
2013-02-09 01:44:00,32.0,22.0,30.38,NNE,31,15.0,22.0,66,0.00,,,0.00,0,weatherlink.com 1.10,2013-02-09 08:44:00,
2013-02-09 01:59:00,31.9,22.0,30.38,NE,40,17.0,20.0,66,0.00,,,0.00,0,weatherlink.com 1.10,2013-02-09 08:59:00,
2013-02-09 02:14:00,31.8,22.0,30.38,NNE,33,14.0,19.0,66,0.00,,,0.00,0,weatherlink.com 1.10,2013-02-09 09:14:00,
2013-02-09 02:29:00,31.5,22.0,30.38,NE,34,13.0,17.0,67,0.00,,,0.00,0,weatherlink.com 1.10,2013-02-09 09:29:00,
2013-02-09 02:44:00,31.3,21.0,30.38,NNE,29,15.0,19.0,66,0.00,,,0.00,0,weatherlink.com 1.10,2013-02-09 09:44:00,
2013-02-09 02:59:00,31.2,21.0,30.38,NNE,32,17.0,18.0,66,0.00,,,0.00,0,weatherlink.com 1.10,2013-02-09 09:59:00,
2013-02-09 03:14:00,31.1,21.0,30.38,NE,38,15.0,17.0,66,0.00,,,0.00,0,weatherlink.com 1.10,2013-02-09 10:14:00,
2013-02-09 03:29:00,31.4,21.0,30.37,NNE,27,17.0,18.0,65,0.00,,,0.00,0,weatherlink.com 1.10,2013-02-09 10:29:00,
2013-02-09 03:44:00,31.4,20.0,30.37,NE,36,17.0,18.0,64,0.00,,,0.00,0,weatherlink.com 1.10,2013-02-09 10:44:00,
2013-02-09 03:59:00,31.3,20.0,30.36,NE,45,14.0,19.0,64,0.00,,,0.00,0,weatherlink.com 1.10,2013-02-09 10:59:00,
2013-02-09 04:14:00,31.4,21.0,30.36,NE,36,14.0,17.0,65,0.00,,,0.00,0,weatherlink.com 1.10,2013-02-09 11:14:00,
2013-02-09 04:29:00,31.0,21.0,30.36,NNE,15,16.0,18.0,67,0.00,,,0.00,0,weatherlink.com 1.10,2013-02-09 11:29:00,
2013-02-09 04:44:00,31.2,21.0,30.36,NNE,27,17.0,25.0,65,0.00,,,0.00,0,weatherlink.com 1.10,2013-02-09 11:44:00,
2013-02-09 04:59:00,30.9,20.0,30.35,NNE,16,14.0,20.0,64,0.00,,,0.00,0,weatherlink.com 1.10,2013-02-09 11:59:00,
2013-02-09 05:14:00,31.0,20.0,30.35,NNE,22,11.0,22.0,63,0.00,,,0.00,0,weatherlink.com 1.10,2013-02-09 12:14:00,
2013-02-09 05:29:00,30.7,19.0,30.35,North,10,13.0,19.0,63,0.00,,,0.00,0,weatherlink.com 1.10,2013-02-09 12:29:00,
2013-02-09 05:44:00,30.3,19.0,30.35,NNE,17,11.0,15.0,64,0.00,,,0.00,0,weatherlink.com 1.10,2013-02-09 12:44:00,
2013-02-09 05:59:00,30.3,19.0,30.35,NNE,17,10.0,15.0,64,0.00,,,0.00,0,weatherlink.com 1.10,2013-02-09 12:59:00,
2013-02-09 06:14:00,30.4,19.0,30.35,NNE,28,15.0,17.0,62,0.00,,,0.00,0,weatherlink.com 1.10,2013-02-09 13:14:00,
2013-02-09 06:29:00,30.4,18.0,30.35,North,10,15.0,17.0,60,0.00,,,0.00,0,weatherlink.com 1.10,2013-02-09 13:29:00,
2013-02-09 06:45:00,30.3,18.0,30.35,North,5,16.0,18.0,60,0.00,,,0.00,0,weatherlink.com 1.10,2013-02-09 13:45:00,
2013-02-09 07:00:00,30.2,17.0,30.35,North,11,12.0,19.0,59,0.00,,,0.00,0,weatherlink.com 1.10,2013-02-09 14:00:00,
2013-02-09 07:15:00,29.9,17.0,30.35,North,9,14.0,17.0,59,0.00,,,0.00,0,weatherlink.com 1.10,2013-02-09 14:15:00,
2013-02-09 07:30:00,29.7,17.0,30.35,NNE,28,8.0,19.0,60,0.00,,,0.00,0,weatherlink.com 1.10,2013-02-09 14:30:00,
2013-02-09 07:45:00,29.4,18.0,30.36,North,5,12.0,17.0,62,0.00,,,0.00,0,weatherlink.com 1.10,2013-02-09 14:45:00,
2013-02-09 08:00:00,28.9,18.0,30.36,NNE,15,9.0,16.0,65,0.00,,,0.00,11,weatherlink.com 1.10,2013-02-09 15:00:00,
2013-02-09 08:15:00,28.7,19.0,30.36,North,10,14.0,15.0,67,0.00,,,0.00,23,weatherlink.com 1.10,2013-02-09 15:15:00,
2013-02-09 08:30:00,28.7,20.0,30.36,NNE,26,14.0,16.0,69,0.00,,,0.00,62,weatherlink.com 1.10,2013-02-09 15:30:00,
2013-02-09 08:45:00,28.5,20.0,30.37,North,11,15.0,16.0,70,0.00,,,0.00,113,weatherlink.com 1.10,2013-02-09 15:45:00,
2013-02-09 09:00:00,28.7,21.0,30.37,North,5,15.0,17.0,72,0.00,,,0.00,171,weatherlink.com 1.10,2013-02-09 16:00:00,
2013-02-09 09:15:00,29.1,20.0,30.36,NNE,14,15.0,17.0,68,0.00,,,0.00,227,weatherlink.com 1.10,2013-02-09 16:15:00,
2013-02-09 09:30:00,28.5,18.0,30.37,North,5,15.0,18.0,66,0.00,,,0.00,179,weatherlink.com 1.10,2013-02-09 16:30:00,
2013-02-09 09:45:00,28.6,19.0,30.37,NNW,345,7.0,14.0,67,0.00,,,0.00,193,weatherlink.com 1.10,2013-02-09 16:45:00,
2013-02-09 10:00:00,31.0,19.0,30.36,NNE,13,11.0,15.0,61,0.00,,,0.00,378,weatherlink.com 1.10,2013-02-09 17:00:00,
2013-02-09 10:15:00,30.8,18.0,30.37,North,360,13.0,18.0,59,0.00,,,0.00,181,weatherlink.com 1.10,2013-02-09 17:15:00,
2013-02-09 10:30:00,31.8,19.0,30.37,NNW,344,10.0,12.0,59,0.00,,,0.00,265,weatherlink.com 1.10,2013-02-09 17:30:00,
2013-02-09 10:45:00,32.1,19.0,30.36,North,5,3.0,10.0,58,0.00,,,0.00,221,weatherlink.com 1.10,2013-02-09 17:45:00,
2013-02-09 11:00:00,32.5,19.0,30.36,NNE,17,8.0,12.0,58,0.00,,,0.00,253,weatherlink.com 1.10,2013-02-09 18:00:00,
2013-02-09 11:15:00,32.7,19.0,30.36,North,355,16.0,21.0,58,0.00,,,0.00,192,weatherlink.com 1.10,2013-02-09 18:15:00,
2013-02-09 11:30:00,32.7,18.0,30.36,NW,312,10.0,18.0,56,0.00,,,0.00,155,weatherlink.com 1.10,2013-02-09 18:30:00,
2013-02-09 11:45:00,33.3,19.0,30.36,WNW,303,2.0,7.0,55,0.00,,,0.00,185,weatherlink.com 1.10,2013-02-09 18:45:00,
2013-02-09 12:00:00,33.3,19.0,30.35,NNW,327,5.0,8.0,56,0.00,,,0.00,255,weatherlink.com 1.10,2013-02-09 19:00:00,
2013-02-09 12:15:00,33.6,19.0,30.34,NNE,20,9.0,9.0,56,0.00,,,0.00,230,weatherlink.com 1.10,2013-02-09 19:15:00,
2013-02-09 12:30:00,33.6,19.0,30.32,NW,309,1.0,7.0,56,0.00,,,0.00,202,weatherlink.com 1.10,2013-02-09 19:30:00,
2013-02-09 12:45:00,33.5,18.0,30.32,SW,236,5.0,9.0,53,0.00,,,0.00,158,weatherlink.com 1.10,2013-02-09 19:45:00,
2013-02-09 13:00:00,33.2,18.0,30.31,SSW,211,5.0,9.0,53,0.00,,,0.00,174,weatherlink.com 1.10,2013-02-09 20:00:00,
2013-02-09 13:15:00,33.3,18.0,30.31,West,275,4.0,6.0,53,0.00,,,0.00,120,weatherlink.com 1.10,2013-02-09 20:15:00,
2013-02-09 13:30:00,33.2,18.0,30.31,WNW,290,0.0,4.0,53,0.00,,,0.00,95,weatherlink.com 1.10,2013-02-09 20:30:00,
2013-02-09 13:45:00,33.3,18.0,30.31,North,360,0.0,4.0,53,0.00,,,0.00,86,weatherlink.com 1.10,2013-02-09 20:45:00,
2013-02-09 14:00:00,33.5,18.0,30.31,ENE,68,3.0,3.0,53,0.00,,,0.00,98,weatherlink.com 1.10,2013-02-09 21:00:00,
2013-02-09 14:15:00,33.2,18.0,30.31,WNW,285,3.0,13.0,54,0.00,,,0.00,56,weatherlink.com 1.10,2013-02-09 21:15:00,
2013-02-09 14:31:00,32.4,22.0,30.31,North,355,13.0,16.0,65,0.00,,,0.00,44,weatherlink.com 1.10,2013-02-09 21:31:00,
2013-02-09 14:46:00,32.1,22.0,30.31,North,5,15.0,16.0,66,0.00,,,0.00,35,weatherlink.com 1.10,2013-02-09 21:46:00,
2013-02-09 15:01:00,31.4,23.0,30.31,NNE,20,13.0,19.0,71,0.00,,,0.00,46,weatherlink.com 1.10,2013-02-09 22:01:00,
2013-02-09 15:16:00,30.7,24.0,30.31,NNE,22,14.0,17.0,75,0.00,,,0.00,46,weatherlink.com 1.10,2013-02-09 22:16:00,
2013-02-09 15:31:00,30.6,24.0,30.31,NNE,26,14.0,20.0,77,0.00,,,0.00,54,weatherlink.com 1.10,2013-02-09 22:31:00,
2013-02-09 15:46:00,30.5,24.0,30.31,NNE,26,14.0,24.0,78,0.00,,,0.00,70,weatherlink.com 1.10,2013-02-09 22:46:00,
2013-02-09 16:01:00,30.3,25.0,30.31,North,5,13.0,19.0,80,0.00,,,0.00,88,weatherlink.com 1.10,2013-02-09 23:01:00,
2013-02-09 16:16:00,30.0,25.0,30.32,NE,36,18.0,21.0,81,0.00,,,0.00,88,weatherlink.com 1.10,2013-02-09 23:16:00,
2013-02-09 16:31:00,30.2,25.0,30.33,NNE,20,19.0,20.0,82,0.00,,,0.00,77,weatherlink.com 1.10,2013-02-09 23:31:00,
2013-02-09 16:46:00,30.3,25.0,30.33,North,11,18.0,20.0,81,0.00,,,0.00,63,weatherlink.com 1.10,2013-02-09 23:46:00,
2013-02-09 17:01:00,30.0,26.0,30.34,North,10,14.0,19.0,84,0.00,,,0.00,42,weatherlink.com 1.10,2013-02-10 00:01:00,
2013-02-09 17:16:00,29.8,26.0,30.35,NNE,27,12.0,19.0,84,0.00,,,0.00,11,weatherlink.com 1.10,2013-02-10 00:16:00,
2013-02-09 17:31:00,29.8,26.0,30.35,NNE,29,16.0,19.0,84,0.00,,,0.00,11,weatherlink.com 1.10,2013-02-10 00:31:00,
2013-02-09 17:46:00,29.0,26.0,30.36,NE,36,15.0,19.0,89,0.00,,,0.00,0,weatherlink.com 1.10,2013-02-10 00:46:00,
2013-02-09 18:01:00,28.6,26.0,30.37,NNE,25,17.0,19.0,91,0.00,,,0.00,0,weatherlink.com 1.10,2013-02-10 01:01:00,
2013-02-09 18:16:00,28.3,26.0,30.38,NNE,24,17.0,20.0,92,0.00,,,0.00,0,weatherlink.com 1.10,2013-02-10 01:16:00,
2013-02-09 18:31:00,28.2,27.0,30.38,NNE,26,16.0,19.0,93,0.00,,,0.00,0,weatherlink.com 1.10,2013-02-10 01:31:00,
2013-02-09 18:46:00,28.4,27.0,30.38,NNE,24,17.0,20.0,93,0.00,,,0.00,0,weatherlink.com 1.10,2013-02-10 01:46:00,
2013-02-09 19:01:00,28.4,27.0,30.39,NNE,24,16.0,20.0,93,0.00,,,0.00,0,weatherlink.com 1.10,2013-02-10 02:01:00,
2013-02-09 19:16:00,28.7,27.0,30.39,NNE,19,17.0,21.0,92,0.00,,,0.00,0,weatherlink.com 1.10,2013-02-10 02:16:00,
2013-02-09 19:31:00,28.9,27.0,30.40,NNE,22,14.0,20.0,92,0.00,,,0.00,0,weatherlink.com 1.10,2013-02-10 02:31:00,
2013-02-09 19:46:00,28.9,27.0,30.40,NNE,19,15.0,19.0,92,0.00,,,0.00,0,weatherlink.com 1.10,2013-02-10 02:46:00,
2013-02-09 20:01:00,29.2,27.0,30.40,North,5,16.0,19.0,91,0.00,,,0.00,0,weatherlink.com 1.10,2013-02-10 03:01:00,
2013-02-09 20:16:00,29.2,27.0,30.41,NNE,15,15.0,21.0,90,0.00,,,0.00,0,weatherlink.com 1.10,2013-02-10 03:16:00,
2013-02-09 20:31:00,29.3,27.0,30.41,NNE,15,12.0,19.0,89,0.00,,,0.00,0,weatherlink.com 1.10,2013-02-10 03:31:00,
2013-02-09 20:46:00,29.4,27.0,30.42,NNE,22,12.0,18.0,89,0.00,,,0.00,0,weatherlink.com 1.10,2013-02-10 03:46:00,
2013-02-09 21:01:00,29.5,26.0,30.43,NNE,17,13.0,17.0,88,0.00,,,0.00,0,weatherlink.com 1.10,2013-02-10 04:01:00,
2013-02-09 21:16:00,29.6,27.0,30.43,NNE,28,16.0,19.0,88,0.00,,,0.00,0,weatherlink.com 1.10,2013-02-10 04:16:00,
2013-02-09 21:31:00,29.3,27.0,30.44,NNE,26,17.0,19.0,89,0.00,,,0.00,0,weatherlink.com 1.10,2013-02-10 04:31:00,
2013-02-09 21:46:00,29.3,27.0,30.45,NNE,19,18.0,20.0,89,0.00,,,0.00,0,weatherlink.com 1.10,2013-02-10 04:46:00,
2013-02-09 22:01:00,29.6,27.0,30.46,NNE,24,14.0,21.0,88,0.00,,,0.00,0,weatherlink.com 1.10,2013-02-10 05:01:00,
2013-02-09 22:16:00,29.5,26.0,30.46,NNE,13,20.0,21.0,88,0.00,,,0.00,0,weatherlink.com 1.10,2013-02-10 05:16:00,
2013-02-09 22:31:00,29.6,26.0,30.47,NNE,24,17.0,20.0,87,0.00,,,0.00,0,weatherlink.com 1.10,2013-02-10 05:31:00,
2013-02-09 22:46:00,29.4,26.0,30.47,NNE,23,15.0,20.0,88,0.00,,,0.00,0,weatherlink.com 1.10,2013-02-10 05:46:00,
2013-02-09 23:01:00,29.3,26.0,30.48,NNE,29,17.0,21.0,88,0.00,,,0.00,0,weatherlink.com 1.10,2013-02-10 06:01:00,
2013-02-09 23:16:00,29.4,26.0,30.48,North,9,16.0,20.0,88,0.00,,,0.00,0,weatherlink.com 1.10,2013-02-10 06:16:00,
2013-02-09 23:31:00,29.4,26.0,30.48,NNE,28,20.0,20.0,87,0.00,,,0.00,0,weatherlink.com 1.10,2013-02-10 06:31:00,
2013-02-09 23:46:00,29.6,26.0,30.48,NNE,28,15.0,19.0,85,0.00,,,0.00,0,weatherlink.com 1.10,2013-02-10 06:46:00,